Time;durP1;ratioP1;P1;durP2;ratioP2;P2;SDS_P1;SDS_P2;PMS_P1;PMS_P2;Temp;Humidity;BMP_temperature;BMP_pressure;BME280_temperature;BME280_humidity;BME280_pressure;Samples;Min_cycle;Max_cycle;Signal;HPM_P1;HPM_P2
2022/05/07 00:01:32;;;;;;;;;;;;;;;19.66;51.90;100279.94;4400537;32;20389;-84
2022/05/07 00:03:59;;;;;;;;;;;;;;;19.70;52.04;100275.50;4401026;32;19982;-83
2022/05/07 00:06:26;;;;;;;;;;;;;;;19.76;51.79;100275.41;4401251;32;19970;-84
2022/05/07 00:08:53;;;;;;;;;;;;;;;19.58;52.18;100275.63;4399263;32;19993;-84
2022/05/07 00:11:21;;;;;;;;;;;;;;;19.58;51.98;100275.63;4399548;32;19986;-84
2022/05/07 00:13:49;;;;;;;;;;;;;;;19.66;51.63;100273.81;4400455;32;20013;-84
2022/05/07 00:19:02;;;;;;;;;;;;;;;19.47;52.32;100273.16;4399502;32;20017;-84
2022/05/07 00:21:29;;;;;;;;;;;;;;;19.81;51.70;100283.22;4398193;32;20049;-84
2022/05/07 00:23:57;;;;;;;;;;;;;;;19.63;51.57;100279.94;4403512;32;20727;-84
2022/05/07 00:26:24;;;;;;;;;;;;;;;19.74;51.27;100278.03;4404029;32;20037;-84
2022/05/07 00:28:51;;;;;;;;;;;;;;;20.00;50.68;100273.28;4403363;32;20012;-84
2022/05/07 00:31:18;;;;;;;;;;;;;;;19.53;52.10;100278.34;4400284;32;20714;-84
2022/05/07 00:33:45;;;;;;;;;;;;;;;19.53;52.01;100283.59;4404601;32;19992;-83
2022/05/07 00:36:12;;;;;;;;;;;;;;;19.55;52.00;100287.03;4400557;32;20400;-84
2022/05/07 00:38:39;;;;;;;;;;;;;;;19.63;51.43;100285.19;4400674;32;20335;-83
2022/05/07 00:41:06;;;;;;;;;;;;;;;20.06;50.50;100284.56;4404497;32;20301;-84
2022/05/07 00:43:33;;;;;;;;;;;;;;;20.00;50.73;100283.81;4399406;32;20013;-84
2022/05/07 00:46:00;;;;;;;;;;;;;;;20.00;50.89;100289.06;4420008;32;19978;-84
2022/05/07 00:48:28;;;;;;;;;;;;;;;20.03;50.86;100283.75;4415465;32;20028;-84
2022/05/07 00:53:41;;;;;;;;;;;;;;;20.16;50.29;100286.16;4413245;32;19986;-84
2022/05/07 00:56:08;;;;;;;;;;;;;;;20.03;50.59;100279.38;4415703;32;20027;-84
2022/05/07 00:58:35;;;;;;;;;;;;;;;20.24;49.92;100283.44;4404390;32;19978;-84
2022/05/07 01:01:02;;;;;;;;;;;;;;;20.19;50.04;100274.72;4400400;32;20028;-84
2022/05/07 01:03:28;;;;;;;;;;;;;;;20.22;49.63;100279.94;4400464;32;20043;-84
2022/05/07 01:05:55;;;;;;;;;;;;;;;20.09;50.09;100278.41;4400731;32;20334;-84
2022/05/07 01:08:25;;;;;;;;;;;;;;;20.19;49.93;100274.72;4400652;32;20024;-84
2022/05/07 01:10:52;;;;;;;;;;;;;;;20.15;49.94;100273.91;4400857;32;19994;-84
2022/05/07 01:13:19;;;;;;;;;;;;;;;20.19;49.18;100272.97;4400415;32;19990;-84
2022/05/07 01:15:47;;;;;;;;;;;;;;;20.24;49.07;100274.69;4397598;32;20049;-84
2022/05/07 01:18:17;;;;;;;;;;;;;;;20.19;49.40;100274.72;4404626;32;20002;-84
2022/05/07 01:20:44;;;;;;;;;;;;;;;20.09;49.60;100274.00;4400131;32;19991;-84
2022/05/07 01:23:12;;;;;;;;;;;;;;;20.00;49.90;100271.53;4400302;32;19994;-84
2022/05/07 01:25:39;;;;;;;;;;;;;;;19.85;50.21;100275.28;4401039;32;19988;-84
2022/05/07 01:28:06;;;;;;;;;;;;;;;19.80;50.06;100277.09;4411889;32;20002;-84
2022/05/07 01:30:34;;;;;;;;;;;;;;;19.89;49.78;100265.59;4400629;32;19986;-85
2022/05/07 01:33:01;;;;;;;;;;;;;;;19.89;49.90;100270.84;4397194;32;19995;-84
2022/05/07 01:35:29;;;;;;;;;;;;;;;19.96;49.52;100275.97;4404537;32;19974;-84
2022/05/07 01:37:56;;;;;;;;;;;;;;;20.15;48.97;100268.66;4399342;32;20568;-84
2022/05/07 01:40:23;;;;;;;;;;;;;;;20.04;48.91;100261.84;4400487;32;20032;-84
2022/05/07 01:42:50;;;;;;;;;;;;;;;20.07;48.68;100264.41;4398686;32;19986;-84
2022/05/07 01:45:18;;;;;;;;;;;;;;;19.97;48.88;100264.59;4403543;32;20374;-84
2022/05/07 01:50:31;;;;;;;;;;;;;;;20.04;48.55;100269.72;4400165;32;19990;-85
2022/05/07 01:52:57;;;;;;;;;;;;;;;19.93;48.53;100262.00;4398552;32;20052;-85
2022/05/07 01:55:24;;;;;;;;;;;;;;;19.97;48.17;100259.34;4403539;32;19986;-84
2022/05/07 01:57:52;;;;;;;;;;;;;;;19.88;48.57;100254.22;4400155;32;20005;-84
2022/05/07 02:00:19;;;;;;;;;;;;;;;19.82;48.13;100259.56;4400402;32;20371;-84
2022/05/07 02:02:46;;;;;;;;;;;;;;;19.84;48.13;100263.00;4351940;32;19998;-84
2022/05/07 02:05:14;;;;;;;;;;;;;;;19.80;48.27;100256.06;4351622;32;20003;-84
2022/05/07 02:07:40;;;;;;;;;;;;;;;19.65;48.61;100262.41;4347088;32;19988;-84
2022/05/07 02:10:09;;;;;;;;;;;;;;;19.86;48.01;100261.25;4340095;32;20022;-84
2022/05/07 02:12:36;;;;;;;;;;;;;;;19.85;47.89;100259.50;4354621;32;20045;-84
2022/05/07 02:15:03;;;;;;;;;;;;;;;19.93;47.73;100262.88;4405626;32;20442;-84
2022/05/07 02:17:33;;;;;;;;;;;;;;;19.80;48.02;100266.59;4399708;32;19986;-84
2022/05/07 02:20:00;;;;;;;;;;;;;;;19.84;48.01;100257.75;4399465;32;19990;-84
2022/05/07 02:22:27;;;;;;;;;;;;;;;19.82;47.95;100258.69;4400053;32;20026;-84
2022/05/07 02:24:54;;;;;;;;;;;;;;;19.79;47.96;100264.84;4398168;32;19982;-84
2022/05/07 02:27:21;;;;;;;;;;;;;;;19.85;47.82;100258.66;4399246;32;20381;-84
2022/05/07 02:29:51;;;;;;;;;;;;;;;19.72;48.14;100268.47;4398142;32;19998;-84
2022/05/07 02:32:21;;;;;;;;;;;;;;;19.68;47.98;100257.13;4399600;32;20004;-84
2022/05/07 02:34:48;;;;;;;;;;;;;;;19.74;48.21;100261.41;4399751;32;20349;-84
2022/05/07 02:37:16;;;;;;;;;;;;;;;19.74;48.43;100256.16;4399839;32;20045;-84
2022/05/07 02:39:44;;;;;;;;;;;;;;;19.87;47.61;100262.97;4407797;32;20031;-85
2022/05/07 02:45:00;;;;;;;;;;;;;;;19.54;48.75;100268.69;4405312;32;20009;-84
2022/05/07 02:47:27;;;;;;;;;;;;;;;19.56;49.09;100266.88;4398130;32;20045;-84
2022/05/07 02:49:54;;;;;;;;;;;;;;;19.34;49.54;100263.72;4399938;32;20005;-84
2022/05/07 02:52:22;;;;;;;;;;;;;;;19.56;48.62;100261.66;4401588;32;19985;-84
2022/05/07 02:54:49;;;;;;;;;;;;;;;19.49;49.29;100261.72;4400772;32;20017;-84
2022/05/07 02:57:16;;;;;;;;;;;;;;;19.59;48.80;100269.47;4401807;32;20386;-84
2022/05/07 02:59:43;;;;;;;;;;;;;;;19.47;49.27;100263.53;4401269;32;20029;-83
2022/05/07 03:02:10;;;;;;;;;;;;;;;19.44;49.48;100263.56;4401318;32;19986;-84
2022/05/07 03:04:38;;;;;;;;;;;;;;;19.50;48.92;100274.00;4400752;32;19982;-84
2022/05/07 03:07:05;;;;;;;;;;;;;;;19.52;49.07;100268.69;4401256;32;20072;-84
2022/05/07 03:09:32;;;;;;;;;;;;;;;19.45;49.25;100260.03;4401300;32;20013;-84
2022/05/07 03:11:59;;;;;;;;;;;;;;;19.51;49.03;100264.34;4401187;32;20402;-84
2022/05/07 03:14:26;;;;;;;;;;;;;;;19.44;49.35;100263.56;4399879;32;20040;-84
2022/05/07 03:16:54;;;;;;;;;;;;;;;19.38;49.43;100268.88;4401703;32;20385;-84
2022/05/07 03:19:20;;;;;;;;;;;;;;;19.35;49.63;100268.94;4401461;32;20000;-84
2022/05/07 03:21:47;;;;;;;;;;;;;;;19.29;49.71;100269.00;4401160;32;20017;-84
2022/05/07 03:24:14;;;;;;;;;;;;;;;19.56;49.18;100266.88;4401250;32;20005;-84
2022/05/07 03:26:41;;;;;;;;;;;;;;;19.51;49.12;100267.84;4401623;32;20008;-85
2022/05/07 03:29:10;;;;;;;;;;;;;;;19.42;49.35;100265.31;4399674;32;19986;-84
2022/05/07 03:31:39;;;;;;;;;;;;;;;19.54;48.74;100271.31;4401072;32;20812;-84
2022/05/07 03:34:06;;;;;;;;;;;;;;;19.56;48.83;100266.88;4401415;32;19978;-83
2022/05/07 03:36:34;;;;;;;;;;;;;;;19.32;49.49;100268.97;4399580;32;20001;-83
2022/05/07 03:39:04;;;;;;;;;;;;;;;19.32;49.06;100268.09;4400838;32;20002;-84
2022/05/07 03:41:31;;;;;;;;;;;;;;;19.44;49.07;100275.81;4401100;32;20045;-84
2022/05/07 03:43:58;;;;;;;;;;;;;;;19.49;48.78;100266.97;4400840;32;20354;-84
2022/05/07 03:46:26;;;;;;;;;;;;;;;19.46;48.69;100269.66;4401272;32;20001;-83
2022/05/07 03:48:54;;;;;;;;;;;;;;;19.29;48.96;100269.88;4400873;32;19989;-84
2022/05/07 03:51:21;;;;;;;;;;;;;;;19.37;48.85;100272.41;4400529;32;19986;-84
2022/05/07 03:53:50;;;;;;;;;;;;;;;19.45;48.85;100272.31;4401060;32;19990;-84
2022/05/07 03:56:18;;;;;;;;;;;;;;;19.44;48.88;100273.19;4399715;32;20421;-84
2022/05/07 03:58:45;;;;;;;;;;;;;;;19.20;49.22;100279.62;4401048;32;20394;-84
2022/05/07 04:01:15;;;;;;;;;;;;;;;19.27;48.89;100276.91;4400869;32;20330;-84
2022/05/07 04:03:42;;;;;;;;;;;;;;;19.25;49.05;100278.69;4400074;32;19989;-84
2022/05/07 04:06:10;;;;;;;;;;;;;;;19.13;49.53;100283.22;4401428;32;20009;-84
2022/05/07 04:08:36;;;;;;;;;;;;;;;19.37;49.00;100288.16;4400567;32;20004;-84
2022/05/07 04:11:04;;;;;;;;;;;;;;;19.34;49.20;100280.31;4400710;32;19973;-83
2022/05/07 04:13:31;;;;;;;;;;;;;;;19.51;48.79;100286.22;4399772;32;20126;-84
2022/05/07 04:15:58;;;;;;;;;;;;;;;19.47;48.92;100287.16;4398173;32;19989;-84
2022/05/07 04:18:25;;;;;;;;;;;;;;;19.59;48.77;100287.84;4400893;32;19989;-84
2022/05/07 04:20:52;;;;;;;;;;;;;;;19.56;48.92;100282.66;4400657;32;19986;-84
2022/05/07 04:23:19;;;;;;;;;;;;;;;19.57;48.73;100287.91;4401042;32;20318;-84
2022/05/07 04:25:47;;;;;;;;;;;;;;;19.65;48.41;100287.81;4401229;32;19997;-84
2022/05/07 04:28:14;;;;;;;;;;;;;;;19.66;48.13;100285.19;4400940;32;20003;-84
2022/05/07 04:30:42;;;;;;;;;;;;;;;19.56;48.83;100282.66;4399775;32;20033;-84
2022/05/07 04:33:09;;;;;;;;;;;;;;;19.64;48.61;100288.72;4400813;32;20033;-84
2022/05/07 04:35:36;;;;;;;;;;;;;;;19.55;48.97;100291.44;4401196;32;20318;-83
2022/05/07 04:38:04;;;;;;;;;;;;;;;19.54;49.12;100289.69;4401178;32;19994;-84
2022/05/07 04:40:31;;;;;;;;;;;;;;;19.54;49.16;100284.44;4400186;32;19982;-83
2022/05/07 04:42:58;;;;;;;;;;;;;;;19.65;48.61;100293.06;4400836;32;20053;-83
2022/05/07 04:45:28;;;;;;;;;;;;;;;19.65;48.61;100287.81;4379810;32;20009;-84
2022/05/07 04:47:56;;;;;;;;;;;;;;;19.59;48.71;100287.84;4425080;32;20476;-84
2022/05/07 04:50:24;;;;;;;;;;;;;;;19.50;48.76;100289.75;4411619;32;19986;-84
2022/05/07 04:52:51;;;;;;;;;;;;;;;19.55;48.86;100291.44;4400550;32;19988;-83
2022/05/07 04:55:18;;;;;;;;;;;;;;;19.69;48.58;100289.53;4400796;32;19974;-84
2022/05/07 04:57:46;;;;;;;;;;;;;;;19.62;48.88;100287.81;4408957;32;20430;-84
2022/05/07 05:00:15;;;;;;;;;;;;;;;19.63;48.54;100284.31;4406231;32;20047;-83
2022/05/07 05:02:44;;;;;;;;;;;;;;;19.65;48.71;100290.44;4401107;32;20036;-84
2022/05/07 05:05:11;;;;;;;;;;;;;;;19.76;48.59;100296.44;4408201;32;20001;-85
2022/05/07 05:07:40;;;;;;;;;;;;;;;19.59;49.06;100293.12;4415746;32;20001;-83
2022/05/07 05:10:08;;;;;;;;;;;;;;;19.77;48.55;100292.91;4412640;32;20013;-83
2022/05/07 05:12:35;;;;;;;;;;;;;;;19.74;48.92;100298.19;4415444;32;20839;-83
2022/05/07 05:15:03;;;;;;;;;;;;;;;19.79;48.65;100290.25;4414715;32;20039;-84
2022/05/07 05:17:33;;;;;;;;;;;;;;;20.03;48.39;100289.00;4414335;32;20023;-84
2022/05/07 05:20:02;;;;;;;;;;;;;;;20.10;47.98;100295.91;4416071;32;19986;-86
2022/05/07 05:22:29;;;;;;;;;;;;;;;19.80;49.17;100303.38;4415359;32;19996;-84
2022/05/07 05:25:02;;;;;;;;;;;;;;;19.68;48.96;100299.13;4415497;32;20004;-85
2022/05/07 05:27:29;;;;;;;;;;;;;;;19.84;49.01;100305.03;4407063;32;20024;-86
2022/05/07 05:29:56;;;;;;;;;;;;;;;19.91;48.80;100306.72;4410727;32;20053;-85
2022/05/07 05:32:23;;;;;;;;;;;;;;;19.60;49.69;100305.37;4398502;32;20030;-85
2022/05/07 05:34:52;;;;;;;;;;;;;;;19.84;49.46;100305.03;4400574;32;20360;-85
2022/05/07 05:37:22;;;;;;;;;;;;;;;19.86;49.61;100303.28;4397384;32;20005;-89
2022/05/07 05:39:49;;;;;;;;;;;;;;;20.02;48.90;100308.31;4400490;32;20039;-87
2022/05/07 05:42:16;;;;;;;;;;;;;;;20.13;48.47;100301.13;4400471;32;20028;-94
2022/05/07 05:44:43;;;;;;;;;;;;;;;20.20;48.09;100297.53;4400169;32;19978;-87
2022/05/07 05:47:10;;;;;;;;;;;;;;;19.96;49.23;100304.87;4399784;32;20041;-89
2022/05/07 05:49:38;;;;;;;;;;;;;;;20.14;48.52;100302.88;4396190;32;20932;-87
2022/05/07 05:52:05;;;;;;;;;;;;;;;20.27;48.12;100301.78;4395918;32;20012;-89
2022/05/07 05:54:33;;;;;;;;;;;;;;;20.31;48.21;100305.22;4400128;32;19988;-90
2022/05/07 05:57:00;;;;;;;;;;;;;;;20.36;48.41;100313.91;4396151;32;20328;-84
2022/05/07 05:59:27;;;;;;;;;;;;;;;20.49;48.25;100317.22;4399181;32;19982;-86
2022/05/07 06:01:55;;;;;;;;;;;;;;;20.61;47.70;100314.38;4411164;32;20017;-87
2022/05/07 06:04:23;;;;;;;;;;;;;;;20.75;47.66;100311.53;4399895;32;20002;-86
2022/05/07 06:06:50;;;;;;;;;;;;;;;20.63;47.82;100307.34;4399475;32;20020;-85
2022/05/07 06:09:17;;;;;;;;;;;;;;;20.77;47.06;100318.50;4399856;32;19982;-85
2022/05/07 06:11:45;;;;;;;;;;;;;;;20.95;46.30;100308.50;4398206;32;19975;-85
2022/05/07 06:14:13;;;;;;;;;;;;;;;20.85;47.29;100308.69;4397332;32;20016;-85
2022/05/07 06:16:40;;;;;;;;;;;;;;;21.02;46.61;100315.37;4393238;32;19986;-85
2022/05/07 06:19:07;;;;;;;;;;;;;;;21.06;46.87;100322.34;4400019;32;20001;-85
2022/05/07 06:21:35;;;;;;;;;;;;;;;21.22;45.68;100313.25;4399754;32;19982;-84
2022/05/07 06:29:34;;;;;;;;;;;;;;;21.11;46.99;100320.47;4404805;32;19990;-85
2022/05/07 06:32:01;;;;;;;;;;;;;;;21.10;46.84;100318.75;4400279;32;19995;-87
2022/05/07 06:34:28;;;;;;;;;;;;;;;21.09;46.87;100323.16;4404377;32;20621;-84
2022/05/07 06:36:57;;;;;;;;;;;;;;;20.94;47.67;100318.19;4404923;32;20028;-84
2022/05/07 06:39:28;;;;;;;;;;;;;;;20.54;47.73;100321.50;4398950;32;20398;-87
2022/05/07 06:41:55;;;;;;;;;;;;;;;20.97;47.22;100317.25;4389475;32;20668;-87
2022/05/07 06:44:22;;;;;;;;;;;;;;;21.17;47.36;100320.34;4388824;32;20005;-87
2022/05/07 06:46:50;;;;;;;;;;;;;;;21.23;46.82;100314.97;4396182;32;19998;-88
2022/05/07 06:49:18;;;;;;;;;;;;;;;21.42;46.54;100317.28;4403942;32;20029;-85
2022/05/07 06:51:45;;;;;;;;;;;;;;;21.47;45.89;100323.28;4411712;32;20010;-84
2022/05/07 06:54:12;;;;;;;;;;;;;;;21.57;46.08;100312.56;4403338;32;20003;-84
2022/05/07 06:56:39;;;;;;;;;;;;;;;21.64;45.60;100310.66;4403938;32;20029;-85
2022/05/07 06:59:07;;;;;;;;;;;;;;;21.49;46.28;100316.25;4403571;32;19998;-86
2022/05/07 07:01:34;;;;;;;;;;;;;;;21.65;45.56;100312.38;4403412;32;19990;-84
2022/05/07 07:04:02;;;;;;;;;;;;;;;21.75;44.69;100319.16;4405270;32;19975;-84
2022/05/07 07:06:29;;;;;;;;;;;;;;;21.55;46.22;100316.09;4401779;32;20021;-85
2022/05/07 07:08:56;;;;;;;;;;;;;;;21.98;45.11;100317.78;4402365;32;19978;-82
2022/05/07 07:11:24;;;;;;;;;;;;;;;22.03;44.99;100318.53;4402905;32;19982;-83
2022/05/07 07:13:51;;;;;;;;;;;;;;;22.04;45.24;100322.91;4401339;32;20009;-82
2022/05/07 07:16:18;;;;;;;;;;;;;;;22.01;45.15;100315.94;4402385;32;19998;-82
2022/05/07 07:18:45;;;;;;;;;;;;;;;21.78;45.58;100319.09;4403542;32;19997;-84
2022/05/07 07:21:13;;;;;;;;;;;;;;;21.90;46.14;100322.37;4396285;32;19992;-84
2022/05/07 07:23:40;;;;;;;;;;;;;;;22.24;45.45;100328.63;4246789;32;20050;-84
2022/05/07 07:26:07;;;;;;;;;;;;;;;22.37;44.31;100323.06;4375372;32;20005;-82
2022/05/07 07:28:34;;;;;;;;;;;;;;;22.31;44.38;100325.84;4406972;32;19978;-82
2022/05/07 07:31:01;;;;;;;;;;;;;;;22.38;43.44;100324.78;4403148;32;20077;-82
2022/05/07 07:33:29;;;;;;;;;;;;;;;22.62;43.75;100333.84;4403807;32;19977;-83
2022/05/07 07:35:56;;;;;;;;;;;;;;;21.88;46.04;100329.44;4401760;32;20036;-83
2022/05/07 07:38:26;;;;;;;;;;;;;;;22.37;44.85;100333.62;4398923;32;19990;-83
2022/05/07 07:40:53;;;;;;;;;;;;;;;22.61;43.46;100332.97;4400361;32;20224;-83
2022/05/07 07:43:20;;;;;;;;;;;;;;;22.65;44.11;100324.06;4400889;32;20032;-83
2022/05/07 07:48:33;;;;;;;;;;;;;;;22.88;43.11;100326.13;4399172;32;20036;-83
2022/05/07 07:51:01;;;;;;;;;;;;;;;22.61;43.91;100330.34;4398547;32;19994;-83
2022/05/07 07:53:30;;;;;;;;;;;;;;;22.89;42.94;100327.00;4400365;32;19993;-83
2022/05/07 07:55:56;;;;;;;;;;;;;;;22.71;43.51;100329.19;4399885;32;19990;-83
2022/05/07 07:58:24;;;;;;;;;;;;;;;22.65;43.62;100324.06;4399156;32;19998;-83
2022/05/07 08:00:50;;;;;;;;;;;;;;;22.69;43.43;100330.16;4399009;32;20373;-83
2022/05/07 08:03:18;;;;;;;;;;;;;;;22.53;44.78;100327.03;4398689;32;19983;-83
2022/05/07 08:05:46;;;;;;;;;;;;;;;22.85;43.58;100325.34;4400308;32;19982;-83
2022/05/07 08:14:03;;;;;;;;;;;;;;;22.99;42.09;100331.13;4352237;32;19991;-83
2022/05/07 08:16:30;;;;;;;;;;;;;;;22.92;42.74;100337.47;4378833;32;20044;-83
2022/05/07 08:18:59;;;;;;;;;;;;;;;22.93;42.67;100329.53;4385643;32;20018;-83
2022/05/07 08:21:28;;;;;;;;;;;;;;;22.94;42.98;100333.03;4386103;32;19978;-83
2022/05/07 08:23:55;;;;;;;;;;;;;;;23.27;42.56;100333.03;4385261;32;20017;-83
2022/05/07 08:26:24;;;;;;;;;;;;;;;23.40;42.34;100339.69;4395220;32;20002;-83
2022/05/07 08:28:52;;;;;;;;;;;;;;;23.59;42.00;100332.94;4400144;32;19982;-83
2022/05/07 08:31:21;;;;;;;;;;;;;;;23.75;41.63;100335.19;4400498;32;19978;-83
2022/05/07 08:33:49;;;;;;;;;;;;;;;23.88;41.30;100332.09;4400859;32;20241;-83
2022/05/07 08:36:16;;;;;;;;;;;;;;;24.06;40.80;100338.59;4400094;32;19994;-83
2022/05/07 08:38:43;;;;;;;;;;;;;;;24.16;40.73;100340.97;4400556;32;20081;-83
2022/05/07 08:41:13;;;;;;;;;;;;;;;24.10;40.30;100340.22;4388903;32;19990;-83
2022/05/07 08:43:42;;;;;;;;;;;;;;;24.00;40.94;100344.09;4385413;32;20033;-83
2022/05/07 08:46:14;;;;;;;;;;;;;;;24.06;40.50;100341.25;4384054;32;20365;-83
2022/05/07 08:48:42;;;;;;;;;;;;;;;24.34;40.36;100345.63;4385396;32;20382;-83
2022/05/07 08:51:09;;;;;;;;;;;;;;;24.58;40.45;100342.22;4384417;32;19982;-83
2022/05/07 08:53:36;;;;;;;;;;;;;;;24.80;40.34;100354.75;4385304;32;20013;-83
2022/05/07 08:56:03;;;;;;;;;;;;;;;24.86;39.90;100349.25;4403168;32;19989;-83
2022/05/07 08:58:30;;;;;;;;;;;;;;;25.53;36.99;100345.97;4399821;32;20038;-83
2022/05/07 09:00:59;;;;;;;;;;;;;;;25.46;37.03;100350.62;4400969;32;20029;-83
2022/05/07 09:03:39;;;;;;;;;;;;;;;25.61;37.54;100343.00;4399924;32;20482;-83
2022/05/07 09:06:27;;;;;;;;;;;;;;;25.55;36.88;100344.09;4380601;32;20036;-83
2022/05/07 09:08:54;;;;;;;;;;;;;;;26.09;36.86;100344.72;4400843;32;20005;-83
2022/05/07 09:11:21;;;;;;;;;;;;;;;26.09;37.25;100339.41;4400171;32;19986;-83
2022/05/07 09:13:58;;;;;;;;;;;;;;;26.64;35.00;100338.03;4397209;32;19978;-83
2022/05/07 09:16:35;;;;;;;;;;;;;;;26.76;33.72;100330.47;4399574;32;20492;-83
2022/05/07 09:19:02;;;;;;;;;;;;;;;26.43;34.69;100329.13;4385223;32;20066;-83
2022/05/07 09:21:29;;;;;;;;;;;;;;;26.62;34.03;100333.72;4398132;32;20012;-83
2022/05/07 09:23:56;;;;;;;;;;;;;;;26.59;34.00;100333.84;4391611;32;19990;-83
2022/05/07 09:26:26;;;;;;;;;;;;;;;26.30;34.28;100333.22;4400175;32;19987;-83
2022/05/07 09:28:54;;;;;;;;;;;;;;;26.64;34.20;100337.16;4400752;32;19982;-83
2022/05/07 09:31:27;;;;;;;;;;;;;;;26.54;34.63;100325.19;4399290;32;20020;-83
2022/05/07 09:33:55;;;;;;;;;;;;;;;26.16;33.99;100335.56;4402395;32;19991;-83
2022/05/07 09:36:22;;;;;;;;;;;;;;;26.05;33.90;100327.19;4400518;32;20040;-83
2022/05/07 09:38:59;;;;;;;;;;;;;;;26.00;34.49;100318.53;4400382;32;20000;-83
2022/05/07 09:41:27;;;;;;;;;;;;;;;25.96;33.36;100321.31;4398853;32;19977;-83
2022/05/07 09:43:53;;;;;;;;;;;;;;;26.12;34.33;100324.22;4400284;32;19994;-83
2022/05/07 09:46:20;;;;;;;;;;;;;;;26.21;33.54;100312.38;4399836;32;19996;-83
2022/05/07 09:48:47;;;;;;;;;;;;;;;26.12;33.59;100318.06;4403960;32;19992;-83
2022/05/07 09:51:14;;;;;;;;;;;;;;;26.55;33.14;100311.00;4399280;32;19988;-83
2022/05/07 09:59:14;;;;;;;;;;;;;;;27.19;32.60;100302.03;4386147;32;20053;-83
2022/05/07 10:01:47;;;;;;;;;;;;;;;27.29;32.10;100304.19;4390144;32;19986;-83
2022/05/07 10:04:14;;;;;;;;;;;;;;;27.08;32.84;100291.84;4397241;32;20052;-83
2022/05/07 10:06:50;;;;;;;;;;;;;;;27.14;32.11;100291.59;4400417;32;19986;-83
2022/05/07 10:09:20;;;;;;;;;;;;;;;27.39;31.83;100287.84;4394513;32;19990;-83
2022/05/07 10:11:50;;;;;;;;;;;;;;;27.47;31.94;100291.87;4406602;32;20364;-83
2022/05/07 10:14:26;;;;;;;;;;;;;;;27.34;32.04;100291.53;4385994;32;20002;-83
2022/05/07 10:17:00;;;;;;;;;;;;;;;27.58;31.39;100288.69;4398973;32;20531;-83
2022/05/07 10:19:39;;;;;;;;;;;;;;;27.76;30.18;100282.50;4402632;32;19989;-83
2022/05/07 10:22:22;;;;;;;;;;;;;;;27.66;30.69;100285.66;4399496;32;20023;-83
2022/05/07 10:25:00;;;;;;;;;;;;;;;27.64;30.84;100276.91;4411371;32;20032;-83
2022/05/07 10:27:30;;;;;;;;;;;;;;;27.89;29.43;100279.25;4415095;32;20394;-83
2022/05/07 10:30:10;;;;;;;;;;;;;;;27.84;29.62;100273.31;4414165;32;20041;-83
2022/05/07 10:32:46;;;;;;;;;;;;;;;28.19;30.26;100268.91;4414749;32;19988;-83
2022/05/07 10:35:14;;;;;;;;;;;;;;;28.39;28.66;100276.75;4414448;32;20002;-83
2022/05/07 10:37:41;;;;;;;;;;;;;;;28.36;30.32;100276.03;4414912;32;20025;-83
2022/05/07 10:40:11;;;;;;;;;;;;;;;28.35;29.99;100274.34;4414920;32;19986;-83
2022/05/07 10:42:39;;;;;;;;;;;;;;;27.96;27.94;100278.03;4414561;32;19973;-83
2022/05/07 10:45:06;;;;;;;;;;;;;;;27.69;28.72;100270.41;4414631;32;20109;-83
2022/05/07 10:47:33;;;;;;;;;;;;;;;27.87;28.49;100273.16;4414773;32;20045;-83
2022/05/07 10:50:13;;;;;;;;;;;;;;;28.04;30.03;100265.22;4414819;32;20586;-83
2022/05/07 10:52:40;;;;;;;;;;;;;;;28.05;29.02;100261.63;4414051;32;19992;-83
2022/05/07 10:55:11;;;;;;;;;;;;;;;27.73;29.74;100272.00;4412989;32;20326;-81
2022/05/07 10:57:38;;;;;;;;;;;;;;;27.50;29.40;100264.25;4414230;32;20019;-81
2022/05/07 11:00:10;;;;;;;;;;;;;;;26.73;30.92;100259.72;4413313;32;19994;-81
2022/05/07 11:02:38;;;;;;;;;;;;;;;27.23;30.59;100261.09;4414065;32;20366;-81
2022/05/07 11:05:05;;;;;;;;;;;;;;;27.52;30.50;100254.41;4413851;32;19989;-80
2022/05/07 11:07:32;;;;;;;;;;;;;;;26.58;28.94;100252.44;4414243;32;20003;-81
2022/05/07 11:09:59;;;;;;;;;;;;;;;26.82;32.64;100256.69;4414097;32;20710;-81
2022/05/07 11:12:28;;;;;;;;;;;;;;;27.37;30.32;100254.19;4415646;32;20341;-80
2022/05/07 11:14:55;;;;;;;;;;;;;;;27.67;29.27;100256.34;4415008;32;20009;-81
2022/05/07 11:17:33;;;;;;;;;;;;;;;27.36;30.84;100255.13;4413107;32;20000;-82
2022/05/07 11:20:00;;;;;;;;;;;;;;;27.59;30.54;100253.19;4416399;32;19986;-80
2022/05/07 11:22:31;;;;;;;;;;;;;;;27.29;29.90;100251.03;4418735;32;19989;-81
2022/05/07 11:24:59;;;;;;;;;;;;;;;27.61;29.77;100256.63;4416020;32;20004;-82
2022/05/07 11:27:32;;;;;;;;;;;;;;;27.11;29.44;100251.84;4416623;32;19989;-81
2022/05/07 11:30:00;;;;;;;;;;;;;;;27.33;29.21;100247.28;4415939;32;20000;-81
2022/05/07 11:32:38;;;;;;;;;;;;;;;27.76;29.22;100245.25;4414587;32;20023;-81
2022/05/07 11:35:05;;;;;;;;;;;;;;;27.46;28.87;100246.72;4411061;32;20327;-82
2022/05/07 11:37:41;;;;;;;;;;;;;;;27.77;29.90;100241.69;4415861;32;19990;-81
2022/05/07 11:40:09;;;;;;;;;;;;;;;27.43;29.53;100238.88;4427044;32;20768;-81
2022/05/07 11:42:41;;;;;;;;;;;;;;;27.64;30.04;100239.69;4415110;32;20032;-82
2022/05/07 11:45:26;;;;;;;;;;;;;;;27.93;29.89;100240.94;4416314;32;19997;-81
2022/05/07 11:48:04;;;;;;;;;;;;;;;27.99;29.99;100227.34;4415955;32;20002;-81
2022/05/07 11:50:32;;;;;;;;;;;;;;;28.16;29.48;100232.66;4415320;32;19986;-82
2022/05/07 11:53:10;;;;;;;;;;;;;;;27.96;28.92;100233.66;4417662;32;19982;-82
2022/05/07 11:55:37;;;;;;;;;;;;;;;28.09;28.94;100225.06;4407269;32;19991;-82
2022/05/07 11:58:13;;;;;;;;;;;;;;;27.49;30.76;100230.63;4403690;32;19986;-82
2022/05/07 12:00:43;;;;;;;;;;;;;;;27.93;30.64;100223.16;4402938;32;20025;-82
2022/05/07 12:03:10;;;;;;;;;;;;;;;27.84;29.93;100220.97;4109848;32;10000612;-82
2022/05/07 12:05:38;;;;;;;;;;;;;;;27.93;30.03;100222.31;4414215;32;20012;-82
2022/05/07 12:08:15;;;;;;;;;;;;;;;28.07;29.76;100221.62;4416133;32;20341;-83
2022/05/07 12:10:44;;;;;;;;;;;;;;;28.25;29.80;100212.69;4415015;32;19998;-83
2022/05/07 12:13:13;;;;;;;;;;;;;;;28.25;28.43;100216.22;4414094;32;20331;-84
2022/05/07 12:18:34;;;;;;;;;;;;;;;27.60;27.35;100212.38;4415285;32;20989;-85
2022/05/07 12:21:01;;;;;;;;;;;;;;;27.22;29.25;100212.38;4414483;32;20040;-84
2022/05/07 12:31:46;;;;;;;;;;;;;;;27.33;30.77;100204.75;4386177;32;785656;-82
2022/05/07 12:34:13;;;;;;;;;;;;;;;27.13;29.50;100196.84;4408467;32;20032;-83
2022/05/07 12:36:39;;;;;;;;;;;;;;;27.27;29.18;100194.41;4412822;32;19998;-82
2022/05/07 12:39:06;;;;;;;;;;;;;;;27.06;30.67;100192.75;4426025;32;20040;-84
2022/05/07 12:41:33;;;;;;;;;;;;;;;27.22;29.73;100191.12;4403369;32;20008;-84
2022/05/07 12:44:00;;;;;;;;;;;;;;;27.68;29.19;100194.22;4375813;32;20312;-84
2022/05/07 12:46:27;;;;;;;;;;;;;;;27.68;28.93;100194.22;4392944;32;19970;-84
2022/05/07 12:48:57;;;;;;;;;;;;;;;27.69;28.41;100192.41;4393642;32;20330;-84
2022/05/07 12:51:27;;;;;;;;;;;;;;;27.86;27.80;100192.50;4398163;32;20000;-84
2022/05/07 12:53:54;;;;;;;;;;;;;;;27.29;28.31;100184.56;4393021;32;20004;-83
2022/05/07 12:56:22;;;;;;;;;;;;;;;27.83;27.23;100183.81;4392560;32;19990;-85
2022/05/07 12:58:52;;;;;;;;;;;;;;;28.00;27.63;100178.47;4402365;32;19982;-84
2022/05/07 13:01:19;;;;;;;;;;;;;;;28.19;27.30;100170.41;4393404;32;20357;-84
2022/05/07 13:03:46;;;;;;;;;;;;;;;28.02;26.84;100171.28;4403872;32;20415;-83
2022/05/07 13:06:13;;;;;;;;;;;;;;;27.93;26.85;100166.44;4391707;32;19982;-83
2022/05/07 13:08:40;;;;;;;;;;;;;;;27.88;26.48;100169.31;4392664;32;20036;-83
2022/05/07 13:11:07;;;;;;;;;;;;;;;27.67;27.17;100168.56;4396791;32;20001;-83
2022/05/07 13:13:34;;;;;;;;;;;;;;;27.56;27.49;100168.22;4394117;32;20033;-83
2022/05/07 13:16:01;;;;;;;;;;;;;;;27.67;26.66;100171.22;4396805;32;20048;-83
2022/05/07 13:18:28;;;;;;;;;;;;;;;27.30;26.81;100162.37;4391301;32;20248;-83
2022/05/07 13:20:55;;;;;;;;;;;;;;;27.01;27.37;100160.19;4412543;32;19994;-82
2022/05/07 13:23:23;;;;;;;;;;;;;;;27.34;27.82;100153.28;4425111;32;20067;-84